Time;durP1;ratioP1;P1;durP2;ratioP2;P2;SDS_P1;SDS_P2;PMS_P1;PMS_P2;Temp;Humidity;BMP_temperature;BMP_pressure;BME280_temperature;BME280_humidity;BME280_pressure;Samples;Min_cycle;Max_cycle;Signal;HPM_P1;HPM_P2
2023/12/05 00:01:14;;;;;;;1999.90;999.90;;;2.20;99.90;;;;;;4990664;28;20340;-70
2023/12/05 00:03:40;;;;;;;1999.90;999.90;;;2.20;99.90;;;;;;4990603;28;20038;-70
2023/12/05 00:06:10;;;;;;;1999.90;999.90;;;2.30;99.90;;;;;;4991799;28;20023;-70
2023/12/05 00:08:36;;;;;;;1999.90;999.90;;;2.20;99.90;;;;;;4997920;28;20448;-70
2023/12/05 00:11:06;;;;;;;1999.90;999.90;;;2.30;99.90;;;;;;5001970;28;20349;-70
2023/12/05 00:13:33;;;;;;;1999.90;999.90;;;2.20;99.90;;;;;;4996120;28;20267;-70
2023/12/05 00:15:59;;;;;;;1999.90;999.90;;;2.30;99.90;;;;;;5007203;28;20074;-71
2023/12/05 00:18:25;;;;;;;1999.90;999.90;;;2.30;99.90;;;;;;4991372;28;20449;-70
2023/12/05 00:20:51;;;;;;;1999.90;999.90;;;2.30;99.90;;;;;;4994872;28;20030;-70
2023/12/05 00:23:17;;;;;;;1999.90;999.90;;;2.20;99.90;;;;;;4997754;28;20114;-70
2023/12/05 00:25:43;;;;;;;1999.90;999.90;;;2.20;99.90;;;;;;4992120;28;20046;-70
2023/12/05 00:28:10;;;;;;;1999.90;999.90;;;2.20;99.90;;;;;;5014926;28;20038;-70
2023/12/05 00:30:35;;;;;;;1999.90;999.90;;;2.30;99.90;;;;;;4990484;28;20107;-69
2023/12/05 00:33:01;;;;;;;1999.90;999.90;;;2.30;99.90;;;;;;4998771;28;20424;-70
2023/12/05 00:35:27;;;;;;;1999.90;999.90;;;2.30;99.90;;;;;;5013874;28;20042;-70
2023/12/05 00:37:53;;;;;;;1999.90;999.90;;;2.20;99.90;;;;;;4993638;28;20274;-70
2023/12/05 00:40:19;;;;;;;1999.90;999.90;;;2.20;99.90;;;;;;4991517;28;20034;-69
2023/12/05 00:42:45;;;;;;;1999.90;999.90;;;2.30;99.90;;;;;;4990615;28;20279;-69
2023/12/05 00:45:14;;;;;;;1999.90;999.90;;;2.20;99.90;;;;;;5023779;28;20035;-70
2023/12/05 00:47:41;;;;;;;1999.90;999.90;;;2.30;99.90;;;;;;4992482;28;20034;-70
2023/12/05 00:50:07;;;;;;;;;;;2.20;99.90;;;;;;4992372;28;20038;-70
2023/12/05 00:52:33;;;;;;;1999.90;999.90;;;2.30;99.90;;;;;;5020544;28;19916;-70
2023/12/05 00:54:58;;;;;;;1999.90;999.90;;;2.20;99.90;;;;;;5000754;28;20026;-70
2023/12/05 00:57:24;;;;;;;1999.90;999.90;;;2.20;99.90;;;;;;5009497;28;20047;-70
2023/12/05 00:59:50;;;;;;;1999.90;999.90;;;2.20;99.90;;;;;;4971440;28;20033;-70
2023/12/05 01:02:16;;;;;;;1999.90;999.90;;;2.20;99.90;;;;;;4996552;28;20026;-70
2023/12/05 01:04:41;;;;;;;1999.90;999.90;;;2.20;99.90;;;;;;4990430;28;20027;-70
2023/12/05 01:07:12;;;;;;;1999.90;999.90;;;2.20;99.90;;;;;;4993734;28;20122;-70
2023/12/05 01:09:38;;;;;;;1999.90;999.90;;;2.20;99.90;;;;;;5005676;28;20171;-70
2023/12/05 01:12:04;;;;;;;1999.90;999.90;;;2.20;99.90;;;;;;4987816;28;20034;-70
2023/12/05 01:14:30;;;;;;;1999.90;999.90;;;2.20;99.90;;;;;;4975446;28;20332;-70
2023/12/05 01:16:56;;;;;;;1999.90;999.90;;;2.20;99.90;;;;;;4994023;28;20030;-70
2023/12/05 01:19:21;;;;;;;1999.90;999.90;;;2.20;99.90;;;;;;4995206;28;20393;-70
2023/12/05 01:21:47;;;;;;;1999.90;999.90;;;2.20;99.90;;;;;;4994027;28;20029;-70
2023/12/05 01:24:13;;;;;;;1999.90;999.90;;;2.20;99.90;;;;;;4995005;28;20019;-70
2023/12/05 01:26:39;;;;;;;1999.90;999.90;;;2.20;99.90;;;;;;4996401;28;20044;-70
2023/12/05 01:29:05;;;;;;;1999.90;999.90;;;2.20;99.90;;;;;;4992114;28;20113;-70
2023/12/05 01:31:30;;;;;;;1999.90;999.90;;;2.20;99.90;;;;;;4993726;28;20109;-70
2023/12/05 01:33:56;;;;;;;1999.90;999.90;;;2.10;99.90;;;;;;4978611;28;20038;-70
2023/12/05 01:36:22;;;;;;;1999.90;999.90;;;2.20;99.90;;;;;;4975639;28;20033;-70
2023/12/05 01:38:48;;;;;;;1999.90;999.90;;;2.10;99.90;;;;;;4994674;28;20024;-70
2023/12/05 01:41:14;;;;;;;1999.90;999.90;;;2.20;99.90;;;;;;4992628;28;20425;-70
2023/12/05 01:43:40;;;;;;;1999.90;999.90;;;2.20;99.90;;;;;;4995472;28;20076;-70
2023/12/05 01:46:06;;;;;;;1999.90;999.90;;;2.20;99.90;;;;;;5018808;28;20030;-70
2023/12/05 01:48:33;;;;;;;1999.90;999.90;;;2.20;99.90;;;;;;4993356;28;20022;-70
2023/12/05 01:51:04;;;;;;;1999.90;999.90;;;2.20;99.90;;;;;;4995881;28;20041;-70
2023/12/05 01:53:32;;;;;;;1999.90;999.90;;;2.10;99.90;;;;;;4994342;28;20035;-70
2023/12/05 01:55:59;;;;;;;1999.90;999.90;;;2.10;99.90;;;;;;4986511;28;20432;-70
2023/12/05 01:58:25;;;;;;;1999.90;999.90;;;2.20;99.90;;;;;;4995569;28;20042;-70
2023/12/05 02:00:51;;;;;;;1999.90;999.90;;;2.20;99.90;;;;;;4997353;28;20037;-69
2023/12/05 02:03:18;;;;;;;1999.90;999.90;;;2.20;99.90;;;;;;4997499;28;20027;-70
2023/12/05 02:05:44;;;;;;;1999.90;999.90;;;2.20;99.90;;;;;;5001272;28;20035;-69
2023/12/05 02:08:11;;;;;;;1999.90;999.90;;;2.20;99.90;;;;;;4999335;28;20306;-70
2023/12/05 02:10:38;;;;;;;1999.90;999.90;;;2.20;99.90;;;;;;4992604;28;20290;-70
2023/12/05 02:13:03;;;;;;;1999.90;999.90;;;2.10;99.90;;;;;;4976278;28;20054;-70
2023/12/05 02:15:29;;;;;;;1999.90;999.90;;;2.10;99.90;;;;;;4995473;28;20058;-70
2023/12/05 02:18:20;;;;;;;1999.90;999.90;;;2.10;99.90;;;;;;4986499;28;20036;-70
2023/12/05 02:20:55;;;;;;;1999.90;999.90;;;2.10;99.90;;;;;;4990290;28;20030;-70
2023/12/05 02:23:59;;;;;;;1999.90;999.90;;;2.10;99.90;;;;;;4997020;28;20032;-70
2023/12/05 02:26:35;;;;;;;1999.90;999.90;;;2.10;99.90;;;;;;4987154;28;20489;-70
2023/12/05 02:29:01;;;;;;;1999.90;999.90;;;2.10;99.90;;;;;;4994225;28;20406;-70
2023/12/05 02:31:27;;;;;;;1999.90;999.90;;;2.10;99.90;;;;;;4976176;28;20092;-70
2023/12/05 02:33:53;;;;;;;1999.90;999.90;;;2.10;99.90;;;;;;4997687;28;20049;-70
2023/12/05 02:36:55;;;;;;;1999.90;999.90;;;2.20;99.90;;;;;;4997348;28;20030;-70
2023/12/05 02:39:50;;;;;;;1999.90;999.90;;;2.10;99.90;;;;;;4992128;28;20031;-70
2023/12/05 02:42:20;;;;;;;1999.90;999.90;;;2.10;99.90;;;;;;4986091;28;20026;-70
2023/12/05 02:44:50;;;;;;;1999.90;999.90;;;2.10;99.90;;;;;;4993212;28;20029;-70
2023/12/05 02:47:20;;;;;;;1999.90;999.90;;;2.00;99.90;;;;;;4998366;28;20035;-70
2023/12/05 02:49:46;;;;;;;1999.90;999.90;;;2.10;99.90;;;;;;4994765;28;20083;-70
2023/12/05 02:52:12;;;;;;;1999.90;999.90;;;2.10;99.90;;;;;;4992501;28;20105;-70
2023/12/05 02:54:37;;;;;;;1999.90;999.90;;;2.10;99.90;;;;;;4993876;28;20042;-70
2023/12/05 02:57:03;;;;;;;1999.90;999.90;;;2.00;99.90;;;;;;4992326;28;20062;-70
2023/12/05 02:59:29;;;;;;;1999.90;999.90;;;2.00;99.90;;;;;;4992544;28;20046;-70
2023/12/05 03:01:55;;;;;;;1999.90;999.90;;;2.00;99.90;;;;;;5017510;28;20030;-70
2023/12/05 03:04:21;;;;;;;1999.90;999.90;;;2.00;99.90;;;;;;4997970;28;20168;-70
2023/12/05 03:06:46;;;;;;;1999.90;999.90;;;2.00;99.90;;;;;;4997188;28;20265;-71
2023/12/05 03:09:12;;;;;;;1999.90;999.90;;;2.00;99.90;;;;;;4996509;28;20023;-70
2023/12/05 03:11:38;;;;;;;1999.90;999.90;;;2.00;99.90;;;;;;4972146;28;20033;-70
2023/12/05 03:14:04;;;;;;;1999.90;999.90;;;2.00;99.90;;;;;;4994613;28;20033;-70
2023/12/05 03:16:29;;;;;;;1999.90;999.90;;;1.90;99.90;;;;;;4993597;28;20026;-70
2023/12/05 03:18:55;;;;;;;1999.90;999.90;;;1.90;99.90;;;;;;4998880;28;20317;-70
2023/12/05 03:21:21;;;;;;;1999.90;999.90;;;1.90;99.90;;;;;;4992385;28;20443;-70
2023/12/05 03:23:47;;;;;;;1999.90;999.90;;;2.00;99.90;;;;;;4994036;28;20083;-70
2023/12/05 03:26:21;;;;;;;1999.90;999.90;;;2.00;99.90;;;;;;4997634;28;20046;-70
2023/12/05 03:28:51;;;;;;;1999.90;999.90;;;2.00;99.90;;;;;;4999840;28;20030;-70
2023/12/05 03:31:17;;;;;;;1999.90;999.90;;;2.00;99.90;;;;;;4997459;28;20110;-70
2023/12/05 03:33:43;;;;;;;1999.90;999.90;;;2.00;99.90;;;;;;5002215;28;20034;-70
2023/12/05 03:36:11;;;;;;;1999.90;999.90;;;2.00;99.90;;;;;;4998628;28;20026;-70
2023/12/05 03:38:38;;;;;;;1999.90;999.90;;;2.00;99.90;;;;;;4992083;28;20087;-71
2023/12/05 03:41:04;;;;;;;;;;;2.00;99.90;;;;;;4993018;28;20076;-70
2023/12/05 03:43:30;;;;;;;1999.90;999.90;;;2.00;99.90;;;;;;5064792;28;20255;-70
2023/12/05 03:45:56;;;;;;;1999.90;999.90;;;2.00;99.90;;;;;;4998057;28;20041;-70
2023/12/05 03:48:21;;;;;;;1999.90;999.90;;;1.90;99.90;;;;;;4989791;28;20060;-70
2023/12/05 03:50:47;;;;;;;1999.90;999.90;;;2.00;99.90;;;;;;5008860;28;20042;-70
2023/12/05 03:53:13;;;;;;;1999.90;999.90;;;2.00;99.90;;;;;;4992223;28;20019;-69
2023/12/05 03:55:39;;;;;;;1999.90;999.90;;;1.90;99.90;;;;;;4992726;28;20495;-70
2023/12/05 03:58:04;;;;;;;1999.90;999.90;;;1.90;99.90;;;;;;4991278;28;20030;-70
2023/12/05 04:00:30;;;;;;;1999.90;999.90;;;1.90;99.90;;;;;;4992703;28;20026;-70
2023/12/05 04:02:56;;;;;;;1999.90;999.90;;;1.90;99.90;;;;;;5014419;28;20382;-70
2023/12/05 04:05:22;;;;;;;1999.90;999.90;;;1.90;99.90;;;;;;4990858;28;20084;-70
2023/12/05 04:07:48;;;;;;;1999.90;999.90;;;2.00;99.90;;;;;;4991624;28;20041;-70
2023/12/05 04:10:13;;;;;;;1999.90;999.90;;;1.90;99.90;;;;;;4991318;28;20026;-70
2023/12/05 04:12:40;;;;;;;1999.90;999.90;;;1.90;99.90;;;;;;5001293;28;20034;-70
2023/12/05 04:15:07;;;;;;;1999.90;999.90;;;1.90;99.90;;;;;;4996501;28;20030;-70
2023/12/05 04:17:33;;;;;;;1999.90;999.90;;;1.90;99.90;;;;;;4993550;28;20066;-70
2023/12/05 04:19:59;;;;;;;1999.90;999.90;;;1.90;99.90;;;;;;4990980;28;20081;-70
2023/12/05 04:22:25;;;;;;;1999.90;999.90;;;1.90;99.90;;;;;;4991496;28;20073;-70
2023/12/05 04:24:51;;;;;;;1999.90;999.90;;;1.90;99.90;;;;;;4991866;28;20332;-70
2023/12/05 04:27:16;;;;;;;1999.90;999.90;;;2.00;99.90;;;;;;4996936;28;20686;-70
2023/12/05 04:29:43;;;;;;;1999.90;999.90;;;2.00;99.90;;;;;;4991297;28;20030;-70
2023/12/05 04:32:08;;;;;;;1999.90;999.90;;;2.00;99.90;;;;;;4992065;28;20033;-70
2023/12/05 04:34:35;;;;;;;1999.90;999.90;;;2.00;99.90;;;;;;4973622;28;20034;-70
2023/12/05 04:37:01;;;;;;;1999.90;999.90;;;2.00;99.90;;;;;;4991217;28;20045;-70
2023/12/05 04:39:26;;;;;;;1999.90;999.90;;;2.00;99.90;;;;;;4990967;28;20026;-70
2023/12/05 04:41:52;;;;;;;1999.90;999.90;;;1.90;99.90;;;;;;4993348;28;20542;-70
2023/12/05 04:44:18;;;;;;;1999.90;999.90;;;2.00;99.90;;;;;;4991761;28;20026;-70
2023/12/05 04:46:44;;;;;;;1999.90;999.90;;;2.00;99.90;;;;;;4991579;28;20026;-70
2023/12/05 04:49:09;;;;;;;1999.90;999.90;;;2.00;99.90;;;;;;4998414;28;20057;-70
2023/12/05 04:51:35;;;;;;;1999.90;999.90;;;2.00;99.90;;;;;;4990499;28;20038;-70
2023/12/05 04:54:01;;;;;;;1999.90;999.90;;;2.00;99.90;;;;;;4998600;28;20136;-70
2023/12/05 04:56:27;;;;;;;1999.90;999.90;;;2.00;99.90;;;;;;4990997;28;20041;-70
2023/12/05 04:58:53;;;;;;;1999.90;999.90;;;2.00;99.90;;;;;;4992644;28;20413;-71
2023/12/05 05:01:19;;;;;;;1999.90;999.90;;;2.00;99.90;;;;;;4994894;28;20038;-70
2023/12/05 05:03:44;;;;;;;1999.90;999.90;;;2.00;99.90;;;;;;4990327;28;20023;-70
2023/12/05 05:06:11;;;;;;;1999.90;999.90;;;2.00;99.90;;;;;;4993647;28;20026;-69
2023/12/05 05:08:37;;;;;;;1999.90;999.90;;;2.00;99.90;;;;;;4991781;28;20106;-71
2023/12/05 05:11:02;;;;;;;1999.90;999.90;;;1.90;99.90;;;;;;4995437;28;20126;-70
2023/12/05 05:13:28;;;;;;;1999.90;999.90;;;2.00;99.90;;;;;;5009846;28;20058;-70
2023/12/05 05:15:54;;;;;;;1999.90;999.90;;;2.00;99.90;;;;;;5018263;28;20031;-71
2023/12/05 05:18:20;;;;;;;1999.90;999.90;;;2.00;99.90;;;;;;5014130;28;20032;-70
2023/12/05 05:20:46;;;;;;;1999.90;999.90;;;2.00;99.90;;;;;;4993150;28;20027;-71
2023/12/05 05:23:11;;;;;;;1999.90;999.90;;;2.00;99.90;;;;;;4990500;28;20372;-70
2023/12/05 05:25:37;;;;;;;1999.90;999.90;;;2.00;99.90;;;;;;5020347;28;20455;-70
2023/12/05 05:28:03;;;;;;;1999.90;999.90;;;2.00;99.90;;;;;;4973506;28;20022;-70
2023/12/05 05:30:29;;;;;;;1999.90;999.90;;;2.00;99.90;;;;;;4987552;28;20492;-70
2023/12/05 05:32:54;;;;;;;1999.90;999.90;;;2.00;99.90;;;;;;5008307;28;20330;-71
2023/12/05 05:35:20;;;;;;;1999.90;999.90;;;2.00;99.90;;;;;;4990446;28;20030;-70
2023/12/05 05:37:46;;;;;;;1999.90;999.90;;;2.00;99.90;;;;;;4982234;28;20034;-70
2023/12/05 05:40:11;;;;;;;1999.90;999.90;;;2.00;99.90;;;;;;4988964;28;20030;-69
2023/12/05 05:42:37;;;;;;;1999.90;999.90;;;2.00;99.90;;;;;;4986482;28;20058;-70
2023/12/05 05:45:04;;;;;;;1999.90;999.90;;;1.90;99.90;;;;;;4986322;28;20031;-70
2023/12/05 05:47:31;;;;;;;1999.90;999.90;;;2.00;99.90;;;;;;4972984;28;20067;-71
2023/12/05 05:49:57;;;;;;;;;;;2.00;99.90;;;;;;4973154;28;20515;-70
2023/12/05 05:52:23;;;;;;;1999.90;999.90;;;2.00;99.90;;;;;;4992207;28;19917;-70
2023/12/05 05:54:50;;;;;;;1999.90;999.90;;;2.00;99.90;;;;;;4999799;28;20099;-70
2023/12/05 05:57:16;;;;;;;1999.90;999.90;;;1.90;99.90;;;;;;4993252;28;20045;-69
2023/12/05 05:59:43;;;;;;;1999.90;999.90;;;1.90;99.90;;;;;;4992854;28;20087;-70
2023/12/05 06:02:11;;;;;;;1999.90;999.90;;;2.00;99.90;;;;;;4992568;28;20034;-70
2023/12/05 06:04:43;;;;;;;1999.90;999.90;;;2.00;99.90;;;;;;4992353;28;20030;-70
2023/12/05 06:07:09;;;;;;;1999.90;999.90;;;2.00;99.90;;;;;;5008830;28;20022;-69
2023/12/05 06:09:35;;;;;;;1999.90;999.90;;;1.90;99.90;;;;;;4989551;28;20045;-70
2023/12/05 06:12:03;;;;;;;1999.90;999.90;;;1.90;99.90;;;;;;4988660;28;20030;-69
2023/12/05 06:14:29;;;;;;;1999.90;999.90;;;1.90;99.90;;;;;;4993819;28;20341;-70
2023/12/05 06:16:57;;;;;;;1999.90;999.90;;;1.90;99.90;;;;;;5004634;28;20031;-70
2023/12/05 06:19:23;;;;;;;1999.90;999.90;;;2.00;99.90;;;;;;4995673;28;20041;-70
2023/12/05 06:21:49;;;;;;;1999.90;999.90;;;2.00;99.90;;;;;;4977339;28;20034;-70
2023/12/05 06:24:15;;;;;;;1999.90;999.90;;;1.90;99.90;;;;;;4990882;28;20027;-70
2023/12/05 06:26:40;;;;;;;1999.90;999.90;;;1.90;99.90;;;;;;4992214;28;20046;-70
2023/12/05 06:29:06;;;;;;;1999.90;999.90;;;1.90;99.90;;;;;;4988025;28;20608;-70
2023/12/05 06:31:32;;;;;;;1999.90;999.90;;;1.90;99.90;;;;;;4997473;28;20121;-70
2023/12/05 06:33:59;;;;;;;1999.90;999.90;;;1.90;99.90;;;;;;4991140;28;20103;-70
2023/12/05 06:36:25;;;;;;;;;;;1.90;99.90;;;;;;4993046;28;20031;-70
2023/12/05 06:38:51;;;;;;;1999.90;999.90;;;1.90;99.90;;;;;;4993434;28;19914;-69
2023/12/05 06:41:17;;;;;;;1999.90;999.90;;;1.90;99.90;;;;;;4992285;28;20049;-70
2023/12/05 06:43:43;;;;;;;1999.90;999.90;;;1.90;99.90;;;;;;4992185;28;20023;-69
2023/12/05 06:46:09;;;;;;;1999.90;999.90;;;1.80;99.90;;;;;;4992040;28;20099;-70
2023/12/05 06:48:35;;;;;;;1999.90;999.90;;;1.90;99.90;;;;;;4991919;28;20416;-70
2023/12/05 06:51:01;;;;;;;1999.90;999.90;;;1.80;99.90;;;;;;4990724;28;20341;-70
2023/12/05 06:53:27;;;;;;;1999.90;999.90;;;1.80;99.90;;;;;;4992115;28;20038;-70
2023/12/05 06:55:54;;;;;;;1999.90;999.90;;;1.80;99.90;;;;;;4989707;28;20264;-70
2023/12/05 06:58:21;;;;;;;1999.90;999.90;;;1.90;99.90;;;;;;4992267;28;20034;-70
2023/12/05 07:00:48;;;;;;;1999.90;999.90;;;1.90;99.90;;;;;;4988958;28;20316;-70
2023/12/05 07:03:15;;;;;;;1999.90;999.90;;;1.80;99.90;;;;;;4991664;28;20054;-70
2023/12/05 07:05:41;;;;;;;;;;;1.80;99.90;;;;;;4992768;28;20114;-69
2023/12/05 07:08:07;;;;;;;1999.90;999.90;;;1.90;99.90;;;;;;4991646;28;20016;-69
2023/12/05 07:10:33;;;;;;;1999.90;999.90;;;1.90;99.90;;;;;;4989925;28;20031;-70
2023/12/05 07:12:59;;;;;;;1999.90;999.90;;;1.90;99.90;;;;;;4992195;28;20306;-70
2023/12/05 07:15:25;;;;;;;1999.90;999.90;;;1.80;99.90;;;;;;4991653;28;20038;-70
2023/12/05 07:17:51;;;;;;;1999.90;999.90;;;1.90;99.90;;;;;;4990419;28;20111;-70
2023/12/05 07:20:16;;;;;;;1999.90;999.90;;;1.90;99.90;;;;;;4990548;28;20038;-70
2023/12/05 07:22:43;;;;;;;1999.90;999.90;;;1.90;99.90;;;;;;4977193;28;20037;-69
2023/12/05 07:25:09;;;;;;;1999.90;999.90;;;1.90;99.90;;;;;;4984466;28;20031;-70
2023/12/05 07:27:35;;;;;;;1999.90;999.90;;;1.90;99.90;;;;;;4984266;28;20452;-70
2023/12/05 07:30:01;;;;;;;;;;;1.90;99.90;;;;;;4991744;28;20026;-70
2023/12/05 07:32:27;;;;;;;1999.90;999.90;;;1.90;99.90;;;;;;4976036;28;19914;-69
2023/12/05 07:34:53;;;;;;;1999.90;999.90;;;1.80;99.90;;;;;;4991561;28;20038;-69
2023/12/05 07:37:19;;;;;;;1999.90;999.90;;;1.90;99.90;;;;;;4988572;28;20042;-70
2023/12/05 07:39:45;;;;;;;1999.90;999.90;;;1.90;99.90;;;;;;4991169;28;20280;-69
2023/12/05 07:42:11;;;;;;;1999.90;999.90;;;1.90;99.90;;;;;;4990393;28;20054;-69
2023/12/05 07:44:37;;;;;;;1999.90;999.90;;;1.80;99.90;;;;;;4990356;28;20094;-69
2023/12/05 07:47:05;;;;;;;1999.90;999.90;;;1.80;99.90;;;;;;4991450;28;20033;-69
2023/12/05 07:49:33;;;;;;;1999.90;999.90;;;1.90;99.90;;;;;;4973129;28;20458;-70
2023/12/05 07:52:01;;;;;;;1999.90;999.90;;;1.90;99.90;;;;;;4990257;28;20445;-70
2023/12/05 07:54:26;;;;;;;;;;;1.80;99.90;;;;;;4989174;28;20485;-69
2023/12/05 07:56:52;;;;;;;1999.90;999.90;;;1.80;99.90;;;;;;4989699;28;19913;-69
2023/12/05 07:59:18;;;;;;;1999.90;999.90;;;1.80;99.90;;;;;;4988900;28;20026;-69
2023/12/05 08:01:46;;;;;;;1999.90;999.90;;;1.90;99.90;;;;;;4988295;28;20030;-69
2023/12/05 08:04:12;;;;;;;1999.90;999.90;;;1.90;99.90;;;;;;4991023;28;20115;-70
2023/12/05 08:06:38;;;;;;;1999.90;999.90;;;1.80;99.90;;;;;;4990185;28;20057;-69
2023/12/05 08:09:04;;;;;;;1999.90;999.90;;;1.80;99.90;;;;;;4978507;28;20062;-70
2023/12/05 08:11:30;;;;;;;1999.90;999.90;;;1.90;99.90;;;;;;4991120;28;20113;-70
2023/12/05 08:13:56;;;;;;;1999.90;999.90;;;1.90;99.90;;;;;;4995262;28;20030;-70
2023/12/05 08:16:22;;;;;;;1999.90;999.90;;;1.90;99.90;;;;;;4987415;28;20076;-69
2023/12/05 08:18:48;;;;;;;1999.90;999.90;;;1.90;99.90;;;;;;4989823;28;20038;-70
2023/12/05 08:21:13;;;;;;;1999.90;999.90;;;1.90;99.90;;;;;;4986840;28;20035;-70
2023/12/05 08:23:39;;;;;;;1999.90;999.90;;;2.00;99.90;;;;;;4987880;28;20030;-70
2023/12/05 08:26:05;;;;;;;1999.90;999.90;;;2.00;99.90;;;;;;5034192;28;20040;-70
2023/12/05 08:28:32;;;;;;;1999.90;999.90;;;2.00;99.90;;;;;;5072618;28;20450;-70
2023/12/05 08:30:58;;;;;;;1999.90;999.90;;;1.90;99.90;;;;;;5073068;28;20033;-69
2023/12/05 08:33:24;;;;;;;1999.90;999.90;;;2.00;99.90;;;;;;5072927;28;20500;-70
2023/12/05 08:35:50;;;;;;;1999.90;999.90;;;2.00;99.90;;;;;;5072109;28;20110;-70
2023/12/05 08:38:15;;;;;;;1999.90;999.90;;;1.90;99.90;;;;;;5070470;28;20052;-70
2023/12/05 08:40:41;;;;;;;1999.90;999.90;;;1.90;99.90;;;;;;5071887;28;20036;-69
2023/12/05 08:43:07;;;;;;;1999.90;999.90;;;1.90;99.90;;;;;;5073544;28;20170;-69
2023/12/05 08:45:33;;;;;;;1999.90;999.90;;;2.00;99.90;;;;;;5074606;28;20029;-70
2023/12/05 08:47:59;;;;;;;1999.90;999.90;;;2.00;99.90;;;;;;5070824;28;20023;-69
2023/12/05 08:50:26;;;;;;;1999.90;999.90;;;2.00;99.90;;;;;;5072287;28;20036;-69
2023/12/05 08:52:51;;;;;;;1999.90;999.90;;;1.90;99.90;;;;;;5072655;28;20032;-70
2023/12/05 08:55:17;;;;;;;1999.90;999.90;;;1.90;99.90;;;;;;5055943;28;20029;-70
2023/12/05 08:57:43;;;;;;;1999.90;999.90;;;1.90;99.90;;;;;;5072558;28;20026;-70
2023/12/05 09:00:09;;;;;;;1999.90;999.90;;;2.00;99.90;;;;;;5070006;28;20020;-70
2023/12/05 09:02:35;;;;;;;1999.90;999.90;;;2.00;99.90;;;;;;5072168;28;20106;-69
2023/12/05 09:05:03;;;;;;;1999.90;999.90;;;2.00;99.90;;;;;;5062800;28;20032;-70
2023/12/05 09:07:30;;;;;;;1999.90;999.90;;;2.00;99.90;;;;;;5077502;28;20284;-70
2023/12/05 09:09:56;;;;;;;1999.90;999.90;;;2.00;99.90;;;;;;5073047;28;20032;-70
2023/12/05 09:12:23;;;;;;;1999.90;999.90;;;2.00;99.90;;;;;;5071139;28;20032;-70
2023/12/05 09:14:49;;;;;;;1999.90;999.90;;;2.00;99.90;;;;;;5070198;28;20437;-70
2023/12/05 09:17:15;;;;;;;1999.90;999.90;;;2.10;99.90;;;;;;5073790;28;20082;-70
2023/12/05 09:19:41;;;;;;;1999.90;999.90;;;2.00;99.90;;;;;;5070838;28;20508;-70
2023/12/05 09:22:07;;;;;;;1999.90;999.90;;;2.10;99.90;;;;;;5070872;28;20028;-70
2023/12/05 09:24:33;;;;;;;1999.90;999.90;;;2.00;99.90;;;;;;5070907;28;20360;-69
2023/12/05 09:26:59;;;;;;;1999.90;999.90;;;2.00;99.90;;;;;;5000528;28;20053;-70
2023/12/05 09:29:25;;;;;;;1999.90;999.90;;;2.00;99.90;;;;;;5015332;28;20064;-70
2023/12/05 09:31:52;;;;;;;1999.90;999.90;;;2.10;99.90;;;;;;4987053;28;20029;-70
2023/12/05 09:34:18;;;;;;;1999.90;999.90;;;2.00;99.90;;;;;;4992797;28;20112;-70
2023/12/05 09:36:44;;;;;;;1999.90;999.90;;;2.00;99.90;;;;;;4987783;28;20102;-70
2023/12/05 09:39:10;;;;;;;1999.90;999.90;;;2.00;99.90;;;;;;4986538;28;20359;-70
2023/12/05 09:41:49;;;;;;;1999.90;999.90;;;2.00;99.90;;;;;;4992301;28;20066;-71
2023/12/05 09:44:20;;;;;;;1999.90;999.90;;;2.00;99.90;;;;;;4989449;28;20439;-70
2023/12/05 09:46:50;;;;;;;1999.90;999.90;;;2.00;99.90;;;;;;4975956;28;20061;-69
2023/12/05 09:49:17;;;;;;;1999.90;999.90;;;2.00;99.90;;;;;;4986867;28;20470;-70
2023/12/05 09:51:43;;;;;;;;;;;2.00;99.90;;;;;;4993242;28;20034;-70
2023/12/05 09:54:11;;;;;;;1999.90;999.90;;;2.00;99.90;;;;;;4991167;28;19909;-70
2023/12/05 09:56:37;;;;;;;1999.90;999.90;;;2.00;99.90;;;;;;4989404;28;20045;-70
2023/12/05 09:59:03;;;;;;;1999.90;999.90;;;1.90;99.90;;;;;;4976110;28;20031;-70
2023/12/05 10:01:31;;;;;;;1999.90;999.90;;;1.90;99.90;;;;;;4992519;28;20042;-70
2023/12/05 10:04:01;;;;;;;1999.90;999.90;;;1.90;99.90;;;;;;4993299;28;20113;-70
2023/12/05 10:06:27;;;;;;;1999.90;999.90;;;1.90;99.90;;;;;;4990423;28;20084;-70
2023/12/05 10:08:54;;;;;;;1999.90;999.90;;;2.00;99.90;;;;;;4991297;28;20026;-70
2023/12/05 10:11:20;;;;;;;;;;;2.00;99.90;;;;;;4992650;28;20065;-70
2023/12/05 10:13:46;;;;;;;;;;;2.00;99.90;;;;;;4975797;28;19914;-70
2023/12/05 10:16:13;;;;;;;1999.90;999.90;;;2.00;99.90;;;;;;4990475;28;19921;-70
2023/12/05 10:18:40;;;;;;;1999.90;999.90;;;2.00;99.90;;;;;;4983916;28;20049;-70
2023/12/05 10:21:06;;;;;;;1999.90;999.90;;;2.00;99.90;;;;;;4973861;28;20099;-70
2023/12/05 10:23:33;;;;;;;1999.90;999.90;;;1.90;99.90;;;;;;4992239;28;20413;-70
2023/12/05 10:25:59;;;;;;;1999.90;999.90;;;2.00;99.90;;;;;;4997553;28;20050;-70
2023/12/05 10:28:25;;;;;;;1999.90;999.90;;;2.00;99.90;;;;;;5023922;28;20432;-70
2023/12/05 10:30:51;;;;;;;1999.90;999.90;;;2.00;99.90;;;;;;5013565;28;20093;-70
2023/12/05 10:33:19;;;;;;;1999.90;999.90;;;2.00;99.90;;;;;;5023392;28;20037;-70
2023/12/05 10:35:45;;;;;;;1999.90;999.90;;;2.00;99.90;;;;;;5008463;28;20418;-69
2023/12/05 10:38:13;;;;;;;1999.90;999.90;;;2.00;99.90;;;;;;4991837;28;20084;-70
2023/12/05 10:40:56;;;;;;;1999.90;999.90;;;2.00;99.90;;;;;;5012150;28;20035;-70
2023/12/05 10:43:28;;;;;;;1999.90;999.90;;;2.10;99.90;;;;;;5020666;28;20039;-70
2023/12/05 10:45:55;;;;;;;1999.90;999.90;;;2.20;99.90;;;;;;4997105;28;20156;-70
2023/12/05 10:48:23;;;;;;;;;;;2.20;99.90;;;;;;5024081;28;20470;-70
2023/12/05 10:50:51;;;;;;;1999.90;999.90;;;2.20;99.90;;;;;;4992362;28;19910;-69
2023/12/05 10:53:18;;;;;;;1999.90;999.90;;;2.20;99.90;;;;;;4994633;28;20030;-70
2023/12/05 10:55:44;;;;;;;1999.90;999.90;;;2.20;99.90;;;;;;4993050;28;20058;-69
2023/12/05 10:58:11;;;;;;;1999.90;999.90;;;2.20;99.90;;;;;;5032520;28;20307;-70
2023/12/05 11:00:38;;;;;;;;;;;2.20;99.90;;;;;;4979749;28;20035;-70
2023/12/05 11:03:04;;;;;;;1999.90;999.90;;;2.20;99.90;;;;;;4996170;28;19914;-70
2023/12/05 11:05:31;;;;;;;1999.90;999.90;;;2.20;99.90;;;;;;4997227;28;20317;-70
2023/12/05 11:07:57;;;;;;;;;;;2.20;99.90;;;;;;5014237;28;20031;-70
2023/12/05 11:10:24;;;;;;;1999.90;999.90;;;2.20;99.90;;;;;;4991270;28;20257;-70
2023/12/05 11:12:53;;;;;;;1999.90;999.90;;;2.20;99.90;;;;;;5023657;28;20091;-70
2023/12/05 11:15:44;;;;;;;1999.90;999.90;;;2.10;99.90;;;;;;4977227;28;20062;-70
2023/12/05 11:18:35;;;;;;;1999.90;999.90;;;2.20;99.90;;;;;;4994897;28;20164;-70
2023/12/05 11:21:20;;;;;;;1999.90;999.90;;;2.20;99.90;;;;;;4999855;28;20036;-70
2023/12/05 11:24:12;;;;;;;1999.90;999.90;;;2.20;99.90;;;;;;5013057;28;20373;-68
2023/12/05 11:26:56;;;;;;;1999.90;999.90;;;2.20;99.90;;;;;;4998054;28;20633;-70
2023/12/05 11:29:45;;;;;;;1999.90;999.90;;;2.20;99.90;;;;;;4990833;28;20110;-70
2023/12/05 11:32:42;;;;;;;1999.90;999.90;;;2.10;99.90;;;;;;4986772;28;20177;-70
2023/12/05 11:35:31;;;;;;;1999.90;999.90;;;2.20;99.90;;;;;;4989089;28;20038;-70
2023/12/05 11:37:59;;;;;;;1999.90;999.90;;;2.10;99.90;;;;;;4987812;28;20083;-70
2023/12/05 11:40:25;;;;;;;1999.90;999.90;;;2.10;99.90;;;;;;4991174;28;20113;-70
2023/12/05 11:43:11;;;;;;;1999.90;999.90;;;2.00;99.90;;;;;;4990623;28;20109;-70
2023/12/05 11:45:42;;;;;;;1999.90;999.90;;;2.10;99.90;;;;;;4991045;28;20062;-70
2023/12/05 11:48:15;;;;;;;1999.90;999.90;;;2.10;99.90;;;;;;4991469;28;20040;-70
2023/12/05 11:50:45;;;;;;;1999.90;999.90;;;2.20;99.90;;;;;;4987106;28;20036;-69
2023/12/05 11:53:14;;;;;;;1999.90;999.90;;;2.20;99.90;;;;;;4990756;28;20102;-70
2023/12/05 11:55:42;;;;;;;1999.90;999.90;;;2.20;99.90;;;;;;4991011;28;20074;-70
2023/12/05 11:58:27;;;;;;;1999.90;999.90;;;2.10;99.90;;;;;;4990897;28;20489;-69
2023/12/05 12:01:13;;;;;;;1999.90;999.90;;;2.10;99.90;;;;;;4989374;28;20058;-70
2023/12/05 12:03:49;;;;;;;1999.90;999.90;;;2.20;99.90;;;;;;4989736;28;20114;-70
2023/12/05 12:06:20;;;;;;;1999.90;999.90;;;2.20;99.90;;;;;;4991295;28;20033;-70
2023/12/05 12:08:53;;;;;;;1999.90;999.90;;;2.10;99.90;;;;;;4990770;28;20034;-70
2023/12/05 12:11:20;;;;;;;1999.90;999.90;;;2.10;99.90;;;;;;4995418;28;20035;-70
2023/12/05 12:13:48;;;;;;;1999.90;999.90;;;2.10;99.90;;;;;;4991865;28;20042;-70
2023/12/05 12:16:18;;;;;;;1999.90;999.90;;;2.20;99.90;;;;;;4989206;28;20496;-70